createdAt,value
2018-09-27T00:00:17.417Z,0
2018-09-27T00:01:17.482Z,0
2018-09-27T00:02:17.478Z,0
2018-09-27T00:03:17.462Z,0
2018-09-27T00:04:17.435Z,0
2018-09-27T00:05:17.366Z,0
2018-09-27T00:06:17.445Z,0
2018-09-27T00:07:17.495Z,0
2018-09-27T00:08:17.429Z,0
2018-09-27T00:09:17.504Z,0
2018-09-27T00:10:17.385Z,0
2018-09-27T00:11:17.498Z,0
2018-09-27T00:12:17.437Z,0
2018-09-27T00:13:17.466Z,0
2018-09-27T00:14:17.599Z,0
2018-09-27T00:15:17.385Z,0
2018-09-27T00:16:17.468Z,0
2018-09-27T00:17:17.451Z,0
2018-09-27T00:18:17.401Z,0
2018-09-27T00:19:17.373Z,0
2018-09-27T00:20:17.329Z,0
2018-09-27T00:21:17.411Z,0
2018-09-27T00:22:17.393Z,0
2018-09-27T00:23:17.454Z,0
2018-09-27T00:24:17.473Z,0
2018-09-27T00:25:17.460Z,0
2018-09-27T00:26:17.374Z,0
2018-09-27T00:27:17.407Z,0
2018-09-27T00:28:17.419Z,0
2018-09-27T00:29:17.470Z,0
2018-09-27T00:30:17.472Z,0
2018-09-27T00:31:17.407Z,0
2018-09-27T00:32:17.476Z,0
2018-09-27T00:33:17.474Z,0
2018-09-27T00:34:17.402Z,0
2018-09-27T00:35:17.406Z,0
2018-09-27T00:36:17.419Z,0
2018-09-27T00:37:17.482Z,0
2018-09-27T00:38:17.410Z,0
2018-09-27T00:39:17.481Z,0
2018-09-27T00:40:17.457Z,0
2018-09-27T00:41:17.488Z,0
2018-09-27T00:42:17.428Z,0
2018-09-27T00:43:17.392Z,0
2018-09-27T00:44:17.408Z,0
2018-09-27T00:45:17.454Z,0
2018-09-27T00:46:17.432Z,0
2018-09-27T00:47:17.546Z,0
2018-09-27T00:48:17.529Z,0
2018-09-27T00:49:17.509Z,0
2018-09-27T00:50:17.497Z,0
2018-09-27T00:51:17.501Z,0
2018-09-27T00:52:17.502Z,0
2018-09-27T00:53:17.530Z,0
2018-09-27T00:54:17.500Z,0
2018-09-27T00:55:17.430Z,0
2018-09-27T00:56:17.460Z,0
2018-09-27T00:57:17.532Z,0
2018-09-27T00:58:17.432Z,0
2018-09-27T00:59:17.515Z,0
2018-09-27T01:00:17.502Z,0
2018-09-27T01:01:17.443Z,0
2018-09-27T01:02:17.506Z,0
2018-09-27T01:03:17.500Z,0
2018-09-27T01:04:17.436Z,0
2018-09-27T01:05:17.518Z,0
2018-09-27T01:06:17.436Z,0
2018-09-27T01:07:17.516Z,0
2018-09-27T01:08:17.473Z,0
2018-09-27T01:09:17.516Z,0
2018-09-27T01:10:17.511Z,0
2018-09-27T01:11:17.401Z,0
2018-09-27T01:12:17.464Z,0
2018-09-27T01:13:17.427Z,0
2018-09-27T01:14:17.500Z,0
2018-09-27T01:15:17.490Z,0
2018-09-27T01:16:17.441Z,0
2018-09-27T01:17:17.463Z,0
2018-09-27T01:18:17.475Z,0
2018-09-27T01:19:17.381Z,0
2018-09-27T01:20:17.434Z,0
2018-09-27T01:21:17.544Z,0
2018-09-27T01:22:17.440Z,0
2018-09-27T01:23:17.518Z,0
2018-09-27T01:24:17.536Z,0
2018-09-27T01:25:17.421Z,0
2018-09-27T01:26:17.548Z,0
2018-09-27T01:27:17.443Z,0
2018-09-27T01:28:17.515Z,0
2018-09-27T01:29:17.495Z,0
2018-09-27T01:30:17.544Z,0
2018-09-27T01:31:17.484Z,0
2018-09-27T01:32:17.543Z,0
2018-09-27T01:33:17.541Z,0
2018-09-27T01:34:17.524Z,0
2018-09-27T01:35:17.501Z,0
2018-09-27T01:36:17.492Z,0
2018-09-27T01:37:17.585Z,0
2018-09-27T01:38:17.592Z,0
2018-09-27T01:39:17.432Z,0
2018-09-27T01:40:17.558Z,0
2018-09-27T01:41:17.509Z,0
2018-09-27T01:42:17.503Z,0
2018-09-27T01:43:17.505Z,0
2018-09-27T01:44:17.521Z,0
2018-09-27T01:45:17.509Z,0
2018-09-27T01:46:17.538Z,0
2018-09-27T01:47:17.508Z,0
2018-09-27T01:48:17.508Z,0
2018-09-27T01:49:17.432Z,0
2018-09-27T01:50:17.436Z,0
2018-09-27T01:51:17.536Z,0
2018-09-27T01:52:17.454Z,0
2018-09-27T01:53:17.436Z,0
2018-09-27T01:54:17.477Z,0
2018-09-27T01:55:17.443Z,0
2018-09-27T01:56:17.479Z,0
2018-09-27T01:57:17.521Z,0
2018-09-27T01:58:17.443Z,0
2018-09-27T01:59:17.505Z,0
2018-09-27T02:00:17.535Z,0
2018-09-27T02:01:17.447Z,0
2018-09-27T02:02:17.543Z,0
2018-09-27T02:03:17.466Z,0
2018-09-27T02:04:17.468Z,0
2018-09-27T02:05:17.539Z,0
2018-09-27T02:06:17.472Z,0
2018-09-27T02:07:17.472Z,0
2018-09-27T02:08:17.543Z,0
2018-09-27T02:09:17.544Z,0
2018-09-27T02:10:17.607Z,0
2018-09-27T02:11:17.570Z,0
2018-09-27T02:12:17.525Z,0
2018-09-27T02:13:17.584Z,0
2018-09-27T02:14:17.531Z,0
2018-09-27T02:15:17.622Z,0
2018-09-27T02:16:17.471Z,0
2018-09-27T02:17:17.591Z,0
2018-09-27T02:18:17.573Z,0
2018-09-27T02:19:17.554Z,0
2018-09-27T02:20:17.478Z,0
2018-09-27T02:21:17.554Z,0
2018-09-27T02:22:17.523Z,0
2018-09-27T02:23:17.555Z,0
2018-09-27T02:24:17.482Z,0
2018-09-27T02:25:17.557Z,0
2018-09-27T02:26:17.479Z,0
2018-09-27T02:27:17.486Z,0
2018-09-27T02:28:17.558Z,0
2018-09-27T02:29:17.561Z,0
2018-09-27T02:30:17.493Z,0
2018-09-27T02:31:17.568Z,0
2018-09-27T02:32:17.566Z,0
2018-09-27T02:33:17.607Z,0
2018-09-27T02:34:17.493Z,0
2018-09-27T02:35:17.493Z,0
2018-09-27T02:36:17.570Z,0
2018-09-27T02:37:17.568Z,0
2018-09-27T02:38:17.493Z,0
2018-09-27T02:39:17.495Z,0
2018-09-27T02:40:17.471Z,0
2018-09-27T02:41:17.531Z,0
2018-09-27T02:42:17.540Z,0
2018-09-27T02:43:17.563Z,0
2018-09-27T02:44:17.485Z,0
2018-09-27T02:45:17.476Z,0
2018-09-27T02:46:17.559Z,0
2018-09-27T02:47:17.499Z,0
2018-09-27T02:48:17.489Z,0
2018-09-27T02:49:17.574Z,0
2018-09-27T02:50:17.557Z,0
2018-09-27T02:51:17.557Z,0
2018-09-27T02:52:17.605Z,0
2018-09-27T02:53:17.562Z,0
2018-09-27T02:54:17.585Z,0
2018-09-27T02:55:17.585Z,0
2018-09-27T02:56:17.530Z,0
2018-09-27T02:57:17.562Z,0
2018-09-27T02:58:17.615Z,0
2018-09-27T02:59:17.618Z,0
2018-09-27T03:00:17.601Z,0
2018-09-27T03:01:17.563Z,0
2018-09-27T03:02:17.609Z,0
2018-09-27T03:03:17.523Z,0
2018-09-27T03:04:17.607Z,0
2018-09-27T03:05:17.526Z,0
2018-09-27T03:06:17.529Z,0
2018-09-27T03:07:17.597Z,0
2018-09-27T03:08:17.619Z,0
2018-09-27T03:09:17.600Z,0
2018-09-27T03:10:17.514Z,0
2018-09-27T03:11:17.621Z,0
2018-09-27T03:12:17.522Z,0
2018-09-27T03:13:17.572Z,0
2018-09-27T03:14:17.628Z,0
2018-09-27T03:15:17.627Z,0
2018-09-27T03:16:17.518Z,0
2018-09-27T03:17:17.640Z,0
2018-09-27T03:18:17.643Z,0
2018-09-27T03:19:17.572Z,0
2018-09-27T03:20:17.646Z,0
2018-09-27T03:21:17.509Z,0
2018-09-27T03:22:17.610Z,0
2018-09-27T03:23:17.568Z,0
2018-09-27T03:24:17.538Z,0
2018-09-27T03:25:17.609Z,0
2018-09-27T03:26:17.585Z,0
2018-09-27T03:27:17.644Z,0
2018-09-27T03:28:17.575Z,0
2018-09-27T03:29:17.613Z,0
2018-09-27T03:30:17.604Z,0
2018-09-27T03:31:17.549Z,0
2018-09-27T03:32:17.513Z,0
2018-09-27T03:33:17.613Z,0
2018-09-27T03:34:17.582Z,0
2018-09-27T03:35:17.613Z,0
2018-09-27T03:36:17.535Z,0
2018-09-27T03:37:17.584Z,0
2018-09-27T03:38:17.557Z,0
2018-09-27T03:39:17.600Z,0
2018-09-27T03:40:17.682Z,0
2018-09-27T03:41:17.616Z,0
2018-09-27T03:42:17.538Z,0
2018-09-27T03:43:17.553Z,0
2018-09-27T03:44:17.615Z,0
2018-09-27T03:45:17.554Z,0
2018-09-27T03:46:17.620Z,0
2018-09-27T03:47:17.550Z,0
2018-09-27T03:48:17.618Z,0
2018-09-27T03:49:17.503Z,0
2018-09-27T03:50:17.653Z,0
2018-09-27T03:51:17.654Z,0
2018-09-27T03:52:17.567Z,0
2018-09-27T03:53:17.553Z,0
2018-09-27T03:54:17.543Z,0
2018-09-27T03:55:17.572Z,0
2018-09-27T03:56:17.550Z,0
2018-09-27T03:57:17.629Z,0
2018-09-27T03:58:17.658Z,0
2018-09-27T03:59:17.666Z,0
2018-09-27T04:00:17.574Z,0
2018-09-27T04:01:17.553Z,0
2018-09-27T04:02:17.614Z,0
2018-09-27T04:03:17.710Z,0
2018-09-27T04:04:17.635Z,0
2018-09-27T04:05:17.571Z,0
2018-09-27T04:06:17.675Z,0
2018-09-27T04:07:17.608Z,0
2018-09-27T04:08:17.645Z,0
2018-09-27T04:09:17.667Z,0
2018-09-27T04:10:17.647Z,0
2018-09-27T04:11:17.666Z,0
2018-09-27T04:12:17.638Z,0
2018-09-27T04:13:17.602Z,0
2018-09-27T04:14:17.776Z,0
2018-09-27T04:15:17.620Z,0
2018-09-27T04:16:17.612Z,0
2018-09-27T04:17:17.585Z,0
2018-09-27T04:18:17.623Z,0
2018-09-27T04:19:17.712Z,0
2018-09-27T04:20:17.583Z,0
2018-09-27T04:21:17.544Z,0
2018-09-27T04:22:17.583Z,0
2018-09-27T04:23:17.577Z,0
2018-09-27T04:24:17.645Z,0
2018-09-27T04:25:17.605Z,0
2018-09-27T04:26:17.593Z,0
2018-09-27T04:27:17.593Z,0
2018-09-27T04:28:17.606Z,0
2018-09-27T04:29:17.711Z,0
2018-09-27T04:30:17.656Z,0
2018-09-27T04:31:17.618Z,0
2018-09-27T04:32:17.656Z,0
2018-09-27T04:33:17.627Z,0
2018-09-27T04:34:17.641Z,0
2018-09-27T04:35:17.575Z,0
2018-09-27T04:36:17.636Z,0
2018-09-27T04:37:17.624Z,0
2018-09-27T04:38:17.559Z,0
2018-09-27T04:39:17.581Z,4
2018-09-27T04:40:17.554Z,4
2018-09-27T04:41:17.533Z,0
2018-09-27T04:42:17.562Z,4
2018-09-27T04:43:17.597Z,4
2018-09-27T04:44:17.646Z,8
2018-09-27T04:45:17.614Z,4
2018-09-27T04:46:17.649Z,8
2018-09-27T04:47:17.535Z,8
2018-09-27T04:48:17.647Z,12
2018-09-27T04:49:17.641Z,16
2018-09-27T04:50:17.699Z,16
2018-09-27T04:51:17.643Z,20
2018-09-27T04:52:17.611Z,28
2018-09-27T04:53:17.632Z,28
2018-09-27T04:54:17.781Z,36
2018-09-27T04:55:17.703Z,40
2018-09-27T04:56:17.670Z,48
2018-09-27T04:57:17.639Z,56
2018-09-27T04:58:17.704Z,68
2018-09-27T04:59:17.613Z,76
2018-09-27T05:00:17.673Z,88
2018-09-27T05:01:17.715Z,100
2018-09-27T05:02:17.704Z,124
2018-09-27T05:03:17.678Z,140
2018-09-27T05:04:17.621Z,164
2018-09-27T05:05:17.679Z,188
2018-09-27T05:06:17.720Z,224
2018-09-27T05:07:17.711Z,260
2018-09-27T05:08:17.621Z,296
2018-09-27T05:09:17.683Z,336
2018-09-27T05:10:17.603Z,380
2018-09-27T05:11:17.604Z,428
2018-09-27T05:12:17.678Z,472
2018-09-27T05:13:17.680Z,524
2018-09-27T05:14:17.606Z,572
2018-09-27T05:15:17.612Z,620
2018-09-27T05:16:17.608Z,668
2018-09-27T05:17:17.680Z,704
2018-09-27T05:18:17.607Z,752
2018-09-27T05:19:17.702Z,796
2018-09-27T05:20:17.721Z,848
2018-09-27T05:21:17.653Z,904
2018-09-27T05:22:17.611Z,956
2018-09-27T05:23:17.722Z,1012
2018-09-27T05:24:17.713Z,1072
2018-09-27T05:25:17.634Z,1136
2018-09-27T05:26:17.750Z,1212
2018-09-27T05:27:17.681Z,1296
2018-09-27T05:28:17.660Z,1384
2018-09-27T05:29:17.708Z,1488
2018-09-27T05:30:17.626Z,1596
2018-09-27T05:31:17.516Z,1720
2018-09-27T05:32:17.573Z,1820
2018-09-27T05:33:17.515Z,1932
2018-09-27T05:34:17.620Z,2036
2018-09-27T05:35:17.581Z,2148
2018-09-27T05:36:17.635Z,2292
2018-09-27T05:37:17.578Z,2452
2018-09-27T05:38:17.584Z,2600
2018-09-27T05:39:17.625Z,2748
2018-09-27T05:40:17.679Z,2892
2018-09-27T05:41:17.724Z,3040
2018-09-27T05:42:17.682Z,3204
2018-09-27T05:43:17.625Z,3372
2018-09-27T05:44:17.737Z,3588
2018-09-27T05:45:17.704Z,3816
2018-09-27T05:46:17.742Z,4044
2018-09-27T05:47:17.626Z,4212
2018-09-27T05:48:17.729Z,4472
2018-09-27T05:49:17.678Z,4636
2018-09-27T05:50:17.711Z,4772
2018-09-27T05:51:17.642Z,5020
2018-09-27T05:52:17.644Z,5316
2018-09-27T05:53:17.648Z,5504
2018-09-27T05:54:17.646Z,5592
2018-09-27T05:55:17.711Z,5740
2018-09-27T05:56:17.719Z,5984
2018-09-27T05:57:17.716Z,6160
2018-09-27T05:58:17.657Z,6248
2018-09-27T05:59:17.678Z,6232
2018-09-27T06:00:17.718Z,6336
2018-09-27T06:01:17.621Z,6492
2018-09-27T06:02:17.678Z,6524
2018-09-27T06:03:17.646Z,6528
2018-09-27T06:04:17.639Z,6612
2018-09-27T06:05:17.715Z,6632
2018-09-27T06:06:17.721Z,6700
2018-09-27T06:07:17.625Z,6808
2018-09-27T06:08:17.718Z,6848
2018-09-27T06:09:17.711Z,6900
2018-09-27T06:10:17.652Z,6920
2018-09-27T06:11:17.676Z,7072
2018-09-27T06:12:17.733Z,7308
2018-09-27T06:13:17.660Z,7432
2018-09-27T06:14:17.734Z,7496
2018-09-27T06:15:17.729Z,7540
2018-09-27T06:16:17.660Z,7596
2018-09-27T06:17:17.661Z,7816
2018-09-27T06:18:17.734Z,7916
2018-09-27T06:19:17.668Z,7992
2018-09-27T06:21:17.618Z,8596
2018-09-27T06:22:17.669Z,9136
2018-09-27T06:23:17.660Z,9480
2018-09-27T06:24:17.720Z,9684
2018-09-27T06:25:17.688Z,9876
2018-09-27T06:26:17.681Z,10104
2018-09-27T06:27:17.693Z,10280
2018-09-27T06:28:17.719Z,10564
2018-09-27T06:29:17.664Z,10876
2018-09-27T06:30:17.665Z,10856
2018-09-27T06:31:17.656Z,10844
2018-09-27T06:32:17.779Z,10944
2018-09-27T06:33:17.740Z,11424
2018-09-27T06:34:17.825Z,12188
2018-09-27T06:35:17.700Z,13052
2018-09-27T06:36:17.765Z,13824
2018-09-27T06:37:17.741Z,14112
2018-09-27T06:38:17.726Z,14300
2018-09-27T06:39:17.663Z,14352
2018-09-27T06:40:17.684Z,14052
2018-09-27T06:41:17.789Z,13988
2018-09-27T06:42:17.710Z,14496
2018-09-27T06:43:17.675Z,15132
2018-09-27T06:44:17.739Z,15524
2018-09-27T06:45:17.747Z,15952
2018-09-27T06:46:17.687Z,16796
2018-09-27T06:47:17.751Z,17328
2018-09-27T06:48:17.701Z,17144
2018-09-27T06:49:17.753Z,16812
2018-09-27T06:50:17.745Z,16488
2018-09-27T06:51:17.720Z,16420
2018-09-27T06:52:17.791Z,16644
2018-09-27T06:53:17.717Z,16900
2018-09-27T06:54:17.772Z,17024
2018-09-27T06:55:17.966Z,16984
2018-09-27T06:56:17.838Z,16920
2018-09-27T06:57:17.733Z,17144
2018-09-27T06:58:17.712Z,17520
2018-09-27T06:59:17.780Z,17840
2018-09-27T07:00:17.776Z,18204
2018-09-27T07:01:17.782Z,18632
2018-09-27T07:02:17.756Z,18916
2018-09-27T07:03:17.757Z,19012
2018-09-27T07:04:17.765Z,19316
2018-09-27T07:05:17.765Z,19688
2018-09-27T07:06:17.790Z,19380
2018-09-27T07:07:17.761Z,19296
2018-09-27T07:08:17.716Z,19692
2018-09-27T07:09:17.687Z,19568
2018-09-27T07:10:17.783Z,18868
2018-09-27T07:11:17.642Z,18580
2018-09-27T07:12:17.816Z,18664
2018-09-27T07:13:17.765Z,18984
2018-09-27T07:14:17.691Z,19996
2018-09-27T07:15:17.695Z,21360
2018-09-27T07:16:17.763Z,21492
2018-09-27T07:17:17.762Z,20664
2018-09-27T07:18:17.724Z,20468
2018-09-27T07:19:17.645Z,33888
2018-09-27T07:20:17.717Z,30752
2018-09-27T07:21:17.811Z,21192
2018-09-27T07:22:17.802Z,20680
2018-09-27T07:23:17.777Z,23456
2018-09-27T07:24:17.698Z,33664
2018-09-27T07:25:17.872Z,52640
2018-09-27T07:26:17.760Z,36960
2018-09-27T07:27:17.855Z,30784
2018-09-27T07:28:17.700Z,25600
2018-09-27T07:29:17.812Z,25504
2018-09-27T07:30:17.780Z,24288
2018-09-27T07:31:17.700Z,42912
2018-09-27T07:32:17.747Z,42528
2018-09-27T07:33:17.781Z,43680
2018-09-27T07:34:17.793Z,44352
2018-09-27T07:35:17.710Z,42880
2018-09-27T07:36:17.828Z,40096
2018-09-27T07:37:17.743Z,31008
2018-09-27T07:38:17.756Z,19376
2018-09-27T07:39:17.817Z,68704
2018-09-27T07:40:17.749Z,67232
2018-09-27T07:41:17.744Z,65728
2018-09-27T07:42:17.707Z,65312
2018-09-27T07:43:17.714Z,44928
2018-09-27T07:44:17.707Z,65664
2018-09-27T07:45:17.748Z,68544
2018-09-27T07:46:17.788Z,73440
2018-09-27T07:47:17.823Z,51552
2018-09-27T07:48:17.814Z,77952
2018-09-27T07:49:17.698Z,80928
2018-09-27T07:50:17.766Z,70176
2018-09-27T07:51:17.735Z,42816
2018-09-27T07:52:17.857Z,34848
2018-09-27T07:53:17.730Z,34752
2018-09-27T07:54:17.856Z,36480
2018-09-27T07:55:17.729Z,33376
2018-09-27T07:56:17.802Z,33792
2018-09-27T07:57:17.770Z,33792
2018-09-27T07:58:17.821Z,35456
2018-09-27T07:59:17.746Z,36608
2018-09-27T08:00:17.742Z,37216
2018-09-27T08:01:17.785Z,38944
2018-09-27T08:02:17.726Z,36064
2018-09-27T08:03:17.743Z,38240
2018-09-27T08:04:17.899Z,39712
2018-09-27T08:05:17.766Z,37248
2018-09-27T08:06:17.765Z,35744
2018-09-27T08:07:17.740Z,34528
2018-09-27T08:08:17.729Z,32768
2018-09-27T08:09:17.839Z,32512
2018-09-27T08:10:17.828Z,32032
2018-09-27T08:11:17.913Z,33856
2018-09-27T08:12:17.875Z,36320
2018-09-27T08:13:17.809Z,34848
2018-09-27T08:14:17.812Z,38496
2018-09-27T08:15:17.814Z,39744
2018-09-27T08:16:17.741Z,37248
2018-09-27T08:17:17.816Z,33152
2018-09-27T08:18:17.811Z,36384
2018-09-27T08:19:17.813Z,33120
2018-09-27T08:20:17.759Z,34976
2018-09-27T08:21:17.836Z,35936
2018-09-27T08:22:17.833Z,38656
2018-09-27T08:23:17.788Z,46080
2018-09-27T08:24:17.892Z,42944
2018-09-27T08:25:17.836Z,57760
2018-09-27T08:26:17.864Z,73408
2018-09-27T08:27:17.838Z,86848
2018-09-27T08:28:17.806Z,67648
2018-09-27T08:29:17.857Z,78720
2018-09-27T08:30:17.757Z,63200
2018-09-27T08:31:17.886Z,54048
2018-09-27T08:32:17.765Z,69952
2018-09-27T08:33:17.820Z,92736
2018-09-27T08:34:17.841Z,82304
2018-09-27T08:35:17.762Z,82048
2018-09-27T08:36:17.768Z,76992
2018-09-27T08:37:17.944Z,78176
2018-09-27T08:38:17.808Z,86144
2018-09-27T08:39:17.829Z,68192
2018-09-27T08:40:17.837Z,47360
2018-09-27T08:41:17.784Z,53536
2018-09-27T08:42:17.756Z,92192
2018-09-27T08:43:17.724Z,103232
2018-09-27T08:44:17.731Z,98016
2018-09-27T08:45:18.143Z,95200
2018-09-27T08:46:17.726Z,93792
2018-09-27T08:47:17.730Z,92320
2018-09-27T08:48:17.819Z,91040
2018-09-27T08:49:17.815Z,90528
2018-09-27T08:50:17.763Z,91072
2018-09-27T08:51:17.858Z,93504
2018-09-27T08:52:17.867Z,95552
2018-09-27T08:53:17.793Z,97024
2018-09-27T08:54:17.810Z,97056
2018-09-27T08:55:17.826Z,96608
2018-09-27T08:56:17.794Z,94816
2018-09-27T08:57:17.841Z,93504
2018-09-27T08:58:17.746Z,93248
2018-09-27T08:59:17.745Z,93824
2018-09-27T09:00:17.900Z,96320
2018-09-27T09:01:17.876Z,99680
2018-09-27T09:02:17.787Z,101984
2018-09-27T09:03:17.851Z,101856
2018-09-27T09:04:17.797Z,101216
2018-09-27T09:05:17.870Z,99648
2018-09-27T09:06:17.874Z,97344
2018-09-27T09:07:17.872Z,95968
2018-09-27T09:08:17.786Z,97216
2018-09-27T09:09:17.826Z,98208
2018-09-27T09:10:17.809Z,99968
2018-09-27T09:11:17.905Z,101728
2018-09-27T09:12:17.924Z,101184
2018-09-27T09:13:17.881Z,99104
2018-09-27T09:14:17.881Z,97408
2018-09-27T09:15:17.859Z,96224
2018-09-27T09:16:17.807Z,95616
2018-09-27T09:17:17.820Z,95712
2018-09-27T09:18:17.889Z,96768
2018-09-27T09:19:17.857Z,96832
2018-09-27T09:20:17.775Z,97056
2018-09-27T09:21:17.855Z,97248
2018-09-27T09:22:17.895Z,97728
2018-09-27T09:23:17.900Z,99680
2018-09-27T09:24:17.824Z,103648
2018-09-27T09:25:17.841Z,106336
2018-09-27T09:26:17.860Z,106720
2018-09-27T09:27:17.829Z,105344
2018-09-27T09:28:17.886Z,102208
2018-09-27T09:29:17.782Z,99648
2018-09-27T09:30:17.967Z,98368
2018-09-27T09:31:17.768Z,99168
2018-09-27T09:32:17.694Z,101472
2018-09-27T09:33:17.820Z,103584
2018-09-27T09:34:17.877Z,104800
2018-09-27T09:35:17.818Z,104128
2018-09-27T09:36:17.758Z,103584
2018-09-27T09:37:17.819Z,102208
2018-09-27T09:38:17.738Z,103008
2018-09-27T09:39:17.787Z,106272
2018-09-27T09:40:17.697Z,108608
2018-09-27T09:41:17.824Z,108032
2018-09-27T09:42:17.857Z,106912
2018-09-27T09:43:17.865Z,105472
2018-09-27T09:44:17.794Z,104544
2018-09-27T09:45:17.794Z,104768
2018-09-27T09:46:17.839Z,105600
2018-09-27T09:47:17.751Z,105920
2018-09-27T09:48:17.879Z,104896
2018-09-27T09:49:17.821Z,104352
2018-09-27T09:50:17.770Z,105536
2018-09-27T09:51:17.812Z,108448
2018-09-27T09:52:17.808Z,113504
2018-09-27T09:53:17.883Z,118944
2018-09-27T09:54:17.816Z,123200
2018-09-27T09:55:17.880Z,123008
2018-09-27T09:56:17.836Z,118752
2018-09-27T09:57:17.819Z,113952
2018-09-27T09:58:17.821Z,109184
2018-09-27T09:59:17.835Z,104928
2018-09-27T10:00:17.965Z,103104
2018-09-27T10:01:17.886Z,103360
2018-09-27T10:02:17.811Z,105408
2018-09-27T10:03:17.824Z,107168
2018-09-27T10:04:17.887Z,105312
2018-09-27T10:05:17.860Z,99616
2018-09-27T10:06:17.888Z,94624
2018-09-27T10:07:17.888Z,93184
2018-09-27T10:08:17.825Z,94944
2018-09-27T10:09:17.826Z,99488
2018-09-27T10:10:17.926Z,107200
2018-09-27T10:11:17.888Z,111200
2018-09-27T10:12:17.830Z,111520
2018-09-27T10:13:17.835Z,109088
2018-09-27T10:14:17.877Z,106080
2018-09-27T10:15:17.819Z,105984
2018-09-27T10:16:17.838Z,107776
2018-09-27T10:17:17.837Z,110112
2018-09-27T10:18:17.937Z,110976
2018-09-27T10:19:17.850Z,111040
2018-09-27T10:20:17.899Z,110880
2018-09-27T10:21:17.884Z,109952
2018-09-27T10:22:17.825Z,110048
2018-09-27T10:23:17.893Z,112128
2018-09-27T10:24:17.861Z,113056
2018-09-27T10:25:17.886Z,113088
2018-09-27T10:26:17.779Z,113344
2018-09-27T10:27:17.929Z,113696
2018-09-27T10:28:17.893Z,113056
2018-09-27T10:29:17.841Z,113696
2018-09-27T10:30:17.869Z,115328
2018-09-27T10:31:17.870Z,115616
2018-09-27T10:32:17.880Z,113536
2018-09-27T10:33:17.949Z,111456
2018-09-27T10:34:18.009Z,110464
2018-09-27T10:35:17.814Z,109792
2018-09-27T10:36:17.870Z,110784
2018-09-27T10:37:17.891Z,113856
2018-09-27T10:38:17.871Z,117472
2018-09-27T10:39:17.855Z,121088
2018-09-27T10:40:17.866Z,123136
2018-09-27T10:41:17.848Z,123680
2018-09-27T10:42:17.848Z,120992
2018-09-27T10:43:17.927Z,116928
2018-09-27T10:44:17.853Z,113504
2018-09-27T10:45:17.865Z,112000
2018-09-27T10:46:17.863Z,114144
2018-09-27T10:47:17.917Z,120992
2018-09-27T10:48:17.924Z,125952
2018-09-27T10:49:17.851Z,126944
2018-09-27T10:50:17.927Z,125824
2018-09-27T10:51:17.901Z,119840
2018-09-27T10:52:17.826Z,112352
2018-09-27T10:53:17.857Z,108736
2018-09-27T10:54:17.926Z,108832
2018-09-27T10:55:17.843Z,112064
2018-09-27T10:56:17.920Z,115520
2018-09-27T10:57:18.054Z,117952
2018-09-27T10:58:17.903Z,117408
2018-09-27T10:59:17.959Z,115456
2018-09-27T11:00:17.879Z,115040
2018-09-27T11:01:17.883Z,116352
2018-09-27T11:02:17.883Z,119424
2018-09-27T11:03:17.918Z,122368
2018-09-27T11:04:17.830Z,123680
2018-09-27T11:05:17.819Z,123392
2018-09-27T11:06:17.922Z,121280
2018-09-27T11:07:17.826Z,120672
2018-09-27T11:08:17.958Z,118720
2018-09-27T11:09:17.923Z,115744
2018-09-27T11:10:17.863Z,114976
2018-09-27T11:11:17.882Z,116864
2018-09-27T11:12:17.925Z,118528
2018-09-27T11:13:17.846Z,118304
2018-09-27T11:14:17.928Z,115008
2018-09-27T11:15:17.837Z,111648
2018-09-27T11:16:17.854Z,109632
2018-09-27T11:17:17.937Z,107200
2018-09-27T11:18:17.931Z,105888
2018-09-27T11:19:18.000Z,107264
2018-09-27T11:20:17.893Z,109792
2018-09-27T11:21:17.942Z,109248
2018-09-27T11:22:17.946Z,107232
2018-09-27T11:23:17.886Z,107424
2018-09-27T11:24:17.884Z,109536
2018-09-27T11:25:17.948Z,111296
2018-09-27T11:26:17.912Z,112896
2018-09-27T11:27:17.879Z,116384
2018-09-27T11:28:17.954Z,120960
2018-09-27T11:29:17.955Z,120864
2018-09-27T11:30:17.919Z,115232
2018-09-27T11:31:17.981Z,110144
2018-09-27T11:32:17.929Z,107552
2018-09-27T11:33:18.013Z,107072
2018-09-27T11:34:17.929Z,107104
2018-09-27T11:35:17.977Z,111424
2018-09-27T11:36:18.017Z,113984
2018-09-27T11:37:17.988Z,110240
2018-09-27T11:38:17.956Z,104160
2018-09-27T11:39:17.886Z,98496
2018-09-27T11:40:17.873Z,98144
2018-09-27T11:41:17.910Z,101568
2018-09-27T11:42:17.960Z,106400
2018-09-27T11:43:17.815Z,109760
2018-09-27T11:44:17.905Z,110144
2018-09-27T11:45:17.909Z,108288
2018-09-27T11:46:17.912Z,107328
2018-09-27T11:47:17.865Z,109280
2018-09-27T11:48:17.877Z,111200
2018-09-27T11:49:17.911Z,113152
2018-09-27T11:50:17.947Z,114048
2018-09-27T11:51:17.881Z,114176
2018-09-27T11:52:17.997Z,113728
2018-09-27T11:53:17.989Z,113280
2018-09-27T11:54:17.868Z,113056
2018-09-27T11:55:17.968Z,111392
2018-09-27T11:56:17.920Z,111168
2018-09-27T11:57:18.002Z,111808
2018-09-27T11:58:17.941Z,112864
2018-09-27T11:59:17.868Z,115264
2018-09-27T12:00:17.945Z,117920
2018-09-27T12:01:17.993Z,118912
2018-09-27T12:02:17.933Z,116992
2018-09-27T12:03:17.991Z,114880
2018-09-27T12:04:18.011Z,112768
2018-09-27T12:05:17.997Z,112032
2018-09-27T12:06:17.948Z,113376
2018-09-27T12:07:17.997Z,114720
2018-09-27T12:08:17.943Z,115808
2018-09-27T12:09:17.974Z,114656
2018-09-27T12:10:17.882Z,111584
2018-09-27T12:11:17.904Z,109056
2018-09-27T12:12:17.901Z,107680
2018-09-27T12:13:18.058Z,108832
2018-09-27T12:14:17.902Z,111104
2018-09-27T12:15:17.951Z,111808
2018-09-27T12:16:18.038Z,111328
2018-09-27T12:17:17.952Z,110656
2018-09-27T12:18:17.902Z,110112
2018-09-27T12:19:17.886Z,109344
2018-09-27T12:20:17.905Z,108608
2018-09-27T12:21:17.939Z,109152
2018-09-27T12:22:18.021Z,109568
2018-09-27T12:23:17.986Z,108864
2018-09-27T12:24:18.019Z,108480
2018-09-27T12:25:18.019Z,108448
2018-09-27T12:26:17.890Z,107008
2018-09-27T12:27:17.912Z,106240
2018-09-27T12:28:18.016Z,106560
2018-09-27T12:29:17.989Z,107168
2018-09-27T12:30:17.997Z,108128
2018-09-27T12:31:17.984Z,108320
2018-09-27T12:32:17.908Z,108032
2018-09-27T12:33:17.978Z,106240
2018-09-27T12:34:17.987Z,102912
2018-09-27T12:35:17.921Z,98816
2018-09-27T12:36:17.990Z,98368
2018-09-27T12:37:17.987Z,101312
2018-09-27T12:38:18.001Z,104416
2018-09-27T12:39:17.928Z,106688
2018-09-27T12:40:17.985Z,107392
2018-09-27T12:41:17.951Z,106464
2018-09-27T12:42:18.213Z,102976
2018-09-27T12:43:18.023Z,100064
2018-09-27T12:44:18.036Z,98240
2018-09-27T12:45:18.122Z,98720
2018-09-27T12:46:18.013Z,101216
2018-09-27T12:47:18.003Z,102272
2018-09-27T12:48:18.071Z,101664
2018-09-27T12:49:18.008Z,101344
2018-09-27T12:50:17.987Z,101824
2018-09-27T12:51:18.049Z,102464
2018-09-27T12:52:18.205Z,104128
2018-09-27T12:53:18.142Z,106272
2018-09-27T12:54:18.008Z,107264
2018-09-27T12:55:17.941Z,106400
2018-09-27T12:56:18.008Z,103584
2018-09-27T12:57:18.002Z,99072
2018-09-27T12:58:17.949Z,96896
2018-09-27T12:59:17.944Z,96480
2018-09-27T13:00:18.016Z,97344
2018-09-27T13:01:17.950Z,98240
2018-09-27T13:02:18.083Z,99008
2018-09-27T13:03:18.013Z,98464
2018-09-27T13:04:17.996Z,95872
2018-09-27T13:05:17.998Z,93568
2018-09-27T13:06:17.986Z,93664
2018-09-27T13:07:17.989Z,94784
2018-09-27T13:08:17.978Z,95552
2018-09-27T13:09:18.087Z,95200
2018-09-27T13:10:18.080Z,94272
2018-09-27T13:11:18.045Z,91040
2018-09-27T13:12:18.068Z,87456
2018-09-27T13:13:18.187Z,87296
2018-09-27T13:14:17.990Z,91232
2018-09-27T13:15:17.957Z,95232
2018-09-27T13:16:17.958Z,97504
2018-09-27T13:17:18.075Z,97440
2018-09-27T13:18:18.022Z,94528
2018-09-27T13:19:18.075Z,89920
2018-09-27T13:20:18.099Z,86528
2018-09-27T13:21:17.963Z,87104
2018-09-27T13:22:17.940Z,90176
2018-09-27T13:23:17.928Z,91392
2018-09-27T13:24:18.005Z,89504
2018-09-27T13:25:18.004Z,85664
2018-09-27T13:26:17.951Z,82048
2018-09-27T13:27:18.001Z,81344
2018-09-27T13:28:18.011Z,83200